sensor_id;sensor_type;location;lat;lon;timestamp;temperature;humidity
326;DHT22;150;52.352;14.058;2023-03-24T00:00:44;13.50;39.00
326;DHT22;150;52.352;14.058;2023-03-24T00:03:11;13.50;38.90
326;DHT22;150;52.352;14.058;2023-03-24T00:05:42;13.40;39.00
326;DHT22;150;52.352;14.058;2023-03-24T00:08:09;13.40;39.20
326;DHT22;150;52.352;14.058;2023-03-24T00:10:36;13.40;39.10
326;DHT22;150;52.352;14.058;2023-03-24T00:13:03;13.40;39.50
326;DHT22;150;52.352;14.058;2023-03-24T00:15:30;13.40;39.50
326;DHT22;150;52.352;14.058;2023-03-24T00:17:58;13.50;39.40
326;DHT22;150;52.352;14.058;2023-03-24T00:20:25;13.50;39.10
326;DHT22;150;52.352;14.058;2023-03-24T00:22:55;13.50;39.30
326;DHT22;150;52.352;14.058;2023-03-24T00:25:24;13.50;39.00
326;DHT22;150;52.352;14.058;2023-03-24T00:27:52;13.50;38.70
326;DHT22;150;52.352;14.058;2023-03-24T00:30:19;13.50;38.70
326;DHT22;150;52.352;14.058;2023-03-24T00:32:46;13.50;38.60
326;DHT22;150;52.352;14.058;2023-03-24T00:35:15;13.50;38.50
326;DHT22;150;52.352;14.058;2023-03-24T00:37:42;13.50;38.70
326;DHT22;150;52.352;14.058;2023-03-24T00:40:13;13.40;38.90
326;DHT22;150;52.352;14.058;2023-03-24T00:42:41;13.40;38.90
326;DHT22;150;52.352;14.058;2023-03-24T00:45:11;13.40;39.10
326;DHT22;150;52.352;14.058;2023-03-24T00:47:39;13.30;39.30
326;DHT22;150;52.352;14.058;2023-03-24T00:50:08;13.30;39.50
326;DHT22;150;52.352;14.058;2023-03-24T00:52:35;13.30;39.40
326;DHT22;150;52.352;14.058;2023-03-24T00:55:04;13.30;39.80
326;DHT22;150;52.352;14.058;2023-03-24T00:57:32;13.40;39.90
326;DHT22;150;52.352;14.058;2023-03-24T01:00:00;13.40;40.00
326;DHT22;150;52.352;14.058;2023-03-24T01:02:36;13.40;40.00
326;DHT22;150;52.352;14.058;2023-03-24T01:05:04;13.30;40.20
326;DHT22;150;52.352;14.058;2023-03-24T01:07:31;13.30;40.00
326;DHT22;150;52.352;14.058;2023-03-24T01:09:58;13.30;40.20
326;DHT22;150;52.352;14.058;2023-03-24T01:12:28;13.30;40.40
326;DHT22;150;52.352;14.058;2023-03-24T01:14:58;13.30;40.50
326;DHT22;150;52.352;14.058;2023-03-24T01:17:25;13.30;40.50
326;DHT22;150;52.352;14.058;2023-03-24T01:19:54;13.30;40.50
326;DHT22;150;52.352;14.058;2023-03-24T01:22:27;13.20;40.60
326;DHT22;150;52.352;14.058;2023-03-24T01:24:55;13.20;40.80
326;DHT22;150;52.352;14.058;2023-03-24T01:27:22;13.10;41.20
326;DHT22;150;52.352;14.058;2023-03-24T01:29:48;13.00;41.70
326;DHT22;150;52.352;14.058;2023-03-24T01:32:16;13.00;42.10
326;DHT22;150;52.352;14.058;2023-03-24T01:34:43;13.00;42.10
326;DHT22;150;52.352;14.058;2023-03-24T01:42:26;13.00;42.50
326;DHT22;150;52.352;14.058;2023-03-24T01:45:59;13.00;42.40
326;DHT22;150;52.352;14.058;2023-03-24T01:49:46;13.00;42.50
326;DHT22;150;52.352;14.058;2023-03-24T01:52:43;13.00;43.20
326;DHT22;150;52.352;14.058;2023-03-24T01:55:22;13.00;43.40
326;DHT22;150;52.352;14.058;2023-03-24T01:58:24;13.00;43.10
326;DHT22;150;52.352;14.058;2023-03-24T02:01:03;13.00;42.90
326;DHT22;150;52.352;14.058;2023-03-24T02:10:46;12.90;43.50
326;DHT22;150;52.352;14.058;2023-03-24T02:13:28;13.00;43.60
326;DHT22;150;52.352;14.058;2023-03-24T02:17:02;12.90;43.40
326;DHT22;150;52.352;14.058;2023-03-24T02:55:25;13.00;42.70
326;DHT22;150;52.352;14.058;2023-03-24T03:02:11;13.40;41.20
326;DHT22;150;52.352;14.058;2023-03-24T03:05:45;13.40;41.10
326;DHT22;150;52.352;14.058;2023-03-24T03:11:21;13.50;40.70
326;DHT22;150;52.352;14.058;2023-03-24T03:18:10;13.60;40.40
326;DHT22;150;52.352;14.058;2023-03-24T03:24:39;13.60;40.10
326;DHT22;150;52.352;14.058;2023-03-24T03:31:41;13.60;40.50
326;DHT22;150;52.352;14.058;2023-03-24T03:35:19;13.60;41.60
326;DHT22;150;52.352;14.058;2023-03-24T03:41:30;13.50;44.00
326;DHT22;150;52.352;14.058;2023-03-24T03:51:51;13.60;45.10
326;DHT22;150;52.352;14.058;2023-03-24T03:55:06;13.60;45.80
326;DHT22;150;52.352;14.058;2023-03-24T03:58:02;13.50;46.10
326;DHT22;150;52.352;14.058;2023-03-24T04:00:58;13.40;46.50
326;DHT22;150;52.352;14.058;2023-03-24T04:04:26;13.30;47.80
326;DHT22;150;52.352;14.058;2023-03-24T04:07:51;13.60;49.30
326;DHT22;150;52.352;14.058;2023-03-24T04:15:10;12.90;51.50
326;DHT22;150;52.352;14.058;2023-03-24T04:18:59;12.90;52.90
326;DHT22;150;52.352;14.058;2023-03-24T04:22:13;12.90;52.90
326;DHT22;150;52.352;14.058;2023-03-24T04:25:12;12.90;52.90
326;DHT22;150;52.352;14.058;2023-03-24T04:28:12;12.90;53.30
326;DHT22;150;52.352;14.058;2023-03-24T04:30:49;13.00;53.40
326;DHT22;150;52.352;14.058;2023-03-24T04:39:57;12.90;53.40
326;DHT22;150;52.352;14.058;2023-03-24T04:46:11;12.90;54.20
326;DHT22;150;52.352;14.058;2023-03-24T04:48:51;12.90;53.90
326;DHT22;150;52.352;14.058;2023-03-24T04:52:19;12.80;55.00
326;DHT22;150;52.352;14.058;2023-03-24T04:54:46;13.00;54.80
326;DHT22;150;52.352;14.058;2023-03-24T05:06:14;13.20;53.60
326;DHT22;150;52.352;14.058;2023-03-24T05:12:11;13.30;52.80
326;DHT22;150;52.352;14.058;2023-03-24T05:12:47;13.30;53.20
326;DHT22;150;52.352;14.058;2023-03-24T05:15:45;13.20;53.30
326;DHT22;150;52.352;14.058;2023-03-24T05:21:56;13.10;54.50
326;DHT22;150;52.352;14.058;2023-03-24T05:25:27;13.10;54.90
326;DHT22;150;52.352;14.058;2023-03-24T05:28:08;13.20;54.40
326;DHT22;150;52.352;14.058;2023-03-24T05:31:04;13.20;54.50
326;DHT22;150;52.352;14.058;2023-03-24T05:33:44;13.20;54.40
326;DHT22;150;52.352;14.058;2023-03-24T05:37:19;13.10;55.40
326;DHT22;150;52.352;14.058;2023-03-24T05:43:49;13.20;55.20
326;DHT22;150;52.352;14.058;2023-03-24T05:47:00;13.20;55.70
326;DHT22;150;52.352;14.058;2023-03-24T05:49:27;13.30;54.80
326;DHT22;150;52.352;14.058;2023-03-24T05:52:18;13.30;54.80
326;DHT22;150;52.352;14.058;2023-03-24T05:54:45;13.20;55.40
326;DHT22;150;52.352;14.058;2023-03-24T05:57:57;13.20;56.10
326;DHT22;150;52.352;14.058;2023-03-24T06:00:56;13.30;56.30
326;DHT22;150;52.352;14.058;2023-03-24T06:03:54;13.30;55.50
326;DHT22;150;52.352;14.058;2023-03-24T06:07:09;13.50;55.50
326;DHT22;150;52.352;14.058;2023-03-24T06:13:04;13.50;54.20
326;DHT22;150;52.352;14.058;2023-03-24T06:15:40;13.60;54.80
326;DHT22;150;52.352;14.058;2023-03-24T06:18:56;13.50;54.80
326;DHT22;150;52.352;14.058;2023-03-24T06:21:37;13.70;53.90
326;DHT22;150;52.352;14.058;2023-03-24T06:24:18;13.80;52.90
326;DHT22;150;52.352;14.058;2023-03-24T06:27:44;13.70;52.80
326;DHT22;150;52.352;14.058;2023-03-24T06:30:27;13.70;53.00
326;DHT22;150;52.352;14.058;2023-03-24T06:33:03;13.70;53.40
326;DHT22;150;52.352;14.058;2023-03-24T06:39:19;13.80;54.20
326;DHT22;150;52.352;14.058;2023-03-24T06:42:17;13.60;55.00
326;DHT22;150;52.352;14.058;2023-03-24T06:49:03;13.70;55.00
326;DHT22;150;52.352;14.058;2023-03-24T06:52:04;13.70;55.00
326;DHT22;150;52.352;14.058;2023-03-24T06:54:57;13.90;54.80
326;DHT22;150;52.352;14.058;2023-03-24T07:01:30;14.00;54.40
326;DHT22;150;52.352;14.058;2023-03-24T07:07:58;14.10;53.90
326;DHT22;150;52.352;14.058;2023-03-24T07:17:28;14.40;52.30
326;DHT22;150;52.352;14.058;2023-03-24T07:20:20;14.40;52.30
326;DHT22;150;52.352;14.058;2023-03-24T07:23:04;14.50;51.30
326;DHT22;150;52.352;14.058;2023-03-24T07:25:44;14.60;50.50
326;DHT22;150;52.352;14.058;2023-03-24T07:28:20;14.80;50.80
326;DHT22;150;52.352;14.058;2023-03-24T07:31:02;15.00;48.60
326;DHT22;150;52.352;14.058;2023-03-24T07:33:36;15.00;48.90
326;DHT22;150;52.352;14.058;2023-03-24T07:36:03;15.10;48.80
326;DHT22;150;52.352;14.058;2023-03-24T07:38:40;15.20;48.40
326;DHT22;150;52.352;14.058;2023-03-24T07:41:13;15.50;48.80
326;DHT22;150;52.352;14.058;2023-03-24T07:43:52;15.40;47.00
326;DHT22;150;52.352;14.058;2023-03-24T07:46:22;15.50;47.10
326;DHT22;150;52.352;14.058;2023-03-24T07:48:54;15.50;46.80
326;DHT22;150;52.352;14.058;2023-03-24T07:51:25;15.50;46.60
326;DHT22;150;52.352;14.058;2023-03-24T07:53:58;15.50;46.00
326;DHT22;150;52.352;14.058;2023-03-24T07:56:25;15.40;46.70
326;DHT22;150;52.352;14.058;2023-03-24T07:59:03;15.40;46.00
326;DHT22;150;52.352;14.058;2023-03-24T08:01:43;15.40;46.50
326;DHT22;150;52.352;14.058;2023-03-24T08:04:11;15.50;46.70
326;DHT22;150;52.352;14.058;2023-03-24T08:06:39;15.80;45.90
326;DHT22;150;52.352;14.058;2023-03-24T08:09:13;15.40;45.70
326;DHT22;150;52.352;14.058;2023-03-24T08:11:40;15.40;45.90
326;DHT22;150;52.352;14.058;2023-03-24T08:14:15;15.30;46.10
326;DHT22;150;52.352;14.058;2023-03-24T08:16:49;16.00;47.10
326;DHT22;150;52.352;14.058;2023-03-24T08:19:21;15.30;46.50
326;DHT22;150;52.352;14.058;2023-03-24T08:21:53;15.40;46.30
326;DHT22;150;52.352;14.058;2023-03-24T08:24:21;15.50;46.60
326;DHT22;150;52.352;14.058;2023-03-24T08:26:48;15.20;47.50
326;DHT22;150;52.352;14.058;2023-03-24T08:29:15;15.20;47.60
326;DHT22;150;52.352;14.058;2023-03-24T08:31:42;15.10;48.40
326;DHT22;150;52.352;14.058;2023-03-24T08:34:12;15.10;48.80
326;DHT22;150;52.352;14.058;2023-03-24T08:36:39;15.00;49.90
326;DHT22;150;52.352;14.058;2023-03-24T08:39:08;15.00;50.50
326;DHT22;150;52.352;14.058;2023-03-24T08:41:37;15.00;52.30
326;DHT22;150;52.352;14.058;2023-03-24T08:44:06;14.70;53.00
326;DHT22;150;52.352;14.058;2023-03-24T08:46:39;14.70;53.70
326;DHT22;150;52.352;14.058;2023-03-24T08:49:12;14.60;54.70
326;DHT22;150;52.352;14.058;2023-03-24T08:51:54;14.50;55.70
326;DHT22;150;52.352;14.058;2023-03-24T08:54:24;14.40;56.90
326;DHT22;150;52.352;14.058;2023-03-24T08:56:56;14.30;57.10
326;DHT22;150;52.352;14.058;2023-03-24T08:59:32;14.30;57.80
326;DHT22;150;52.352;14.058;2023-03-24T09:01:59;14.40;58.00
326;DHT22;150;52.352;14.058;2023-03-24T09:04:26;14.30;57.70
326;DHT22;150;52.352;14.058;2023-03-24T09:06:53;14.30;57.10
326;DHT22;150;52.352;14.058;2023-03-24T09:09:24;14.40;57.50
326;DHT22;150;52.352;14.058;2023-03-24T09:11:51;14.40;57.20
326;DHT22;150;52.352;14.058;2023-03-24T09:14:20;14.50;57.70
326;DHT22;150;52.352;14.058;2023-03-24T09:16:48;14.50;57.30
326;DHT22;150;52.352;14.058;2023-03-24T09:19:16;14.50;57.30
326;DHT22;150;52.352;14.058;2023-03-24T09:21:43;14.40;57.70
326;DHT22;150;52.352;14.058;2023-03-24T09:24:10;14.50;57.40
326;DHT22;150;52.352;14.058;2023-03-24T09:26:37;14.50;57.30
326;DHT22;150;52.352;14.058;2023-03-24T09:29:04;14.60;58.00
326;DHT22;150;52.352;14.058;2023-03-24T09:31:34;14.70;57.60
326;DHT22;150;52.352;14.058;2023-03-24T09:34:04;14.80;57.50
326;DHT22;150;52.352;14.058;2023-03-24T09:36:31;14.80;57.40
326;DHT22;150;52.352;14.058;2023-03-24T09:38:57;14.80;56.50
326;DHT22;150;52.352;14.058;2023-03-24T09:41:26;14.70;56.10
326;DHT22;150;52.352;14.058;2023-03-24T09:43:57;14.70;57.10
326;DHT22;150;52.352;14.058;2023-03-24T09:46:29;14.80;57.50
326;DHT22;150;52.352;14.058;2023-03-24T09:48:58;14.90;56.90
326;DHT22;150;52.352;14.058;2023-03-24T09:51:26;15.00;56.30
326;DHT22;150;52.352;14.058;2023-03-24T09:53:59;15.10;55.50
326;DHT22;150;52.352;14.058;2023-03-24T09:56:38;15.10;54.90
326;DHT22;150;52.352;14.058;2023-03-24T09:59:16;15.10;54.60
326;DHT22;150;52.352;14.058;2023-03-24T10:01:44;14.90;54.10
326;DHT22;150;52.352;14.058;2023-03-24T10:04:18;15.30;56.00
326;DHT22;150;52.352;14.058;2023-03-24T10:06:46;15.10;56.50
326;DHT22;150;52.352;14.058;2023-03-24T10:09:23;15.40;56.80
326;DHT22;150;52.352;14.058;2023-03-24T10:12:18;15.60;55.10
326;DHT22;150;52.352;14.058;2023-03-24T10:15:30;15.90;55.10
326;DHT22;150;52.352;14.058;2023-03-24T10:17:56;16.20;53.70
326;DHT22;150;52.352;14.058;2023-03-24T10:20:44;16.40;52.30
326;DHT22;150;52.352;14.058;2023-03-24T10:23:23;16.80;52.30
326;DHT22;150;52.352;14.058;2023-03-24T10:29:12;17.20;49.50
326;DHT22;150;52.352;14.058;2023-03-24T10:31:52;17.40;47.60
326;DHT22;150;52.352;14.058;2023-03-24T10:34:27;17.50;48.00
326;DHT22;150;52.352;14.058;2023-03-24T10:37:04;17.50;47.20
326;DHT22;150;52.352;14.058;2023-03-24T10:39:32;17.60;47.20
326;DHT22;150;52.352;14.058;2023-03-24T10:42:08;17.80;46.20
326;DHT22;150;52.352;14.058;2023-03-24T10:44:50;18.00;46.40
326;DHT22;150;52.352;14.058;2023-03-24T10:50:46;18.40;41.80
326;DHT22;150;52.352;14.058;2023-03-24T10:57:32;18.20;41.00
326;DHT22;150;52.352;14.058;2023-03-24T11:00:00;18.00;41.40
326;DHT22;150;52.352;14.058;2023-03-24T11:02:40;17.90;39.50
326;DHT22;150;52.352;14.058;2023-03-24T11:05:13;17.80;40.20
326;DHT22;150;52.352;14.058;2023-03-24T11:07:43;17.80;40.60
326;DHT22;150;52.352;14.058;2023-03-24T11:10:14;17.80;41.00
326;DHT22;150;52.352;14.058;2023-03-24T11:12:58;17.90;40.30
326;DHT22;150;52.352;14.058;2023-03-24T11:15:28;17.90;39.40
326;DHT22;150;52.352;14.058;2023-03-24T11:17:57;18.00;38.60
326;DHT22;150;52.352;14.058;2023-03-24T11:20:28;18.10;38.50
326;DHT22;150;52.352;14.058;2023-03-24T11:22:58;18.10;38.00
326;DHT22;150;52.352;14.058;2023-03-24T11:25:26;18.10;38.30
326;DHT22;150;52.352;14.058;2023-03-24T11:27:58;18.10;37.80
326;DHT22;150;52.352;14.058;2023-03-24T11:30:28;18.00;38.30
326;DHT22;150;52.352;14.058;2023-03-24T11:32:57;17.80;37.10
326;DHT22;150;52.352;14.058;2023-03-24T11:35:24;17.60;37.10
326;DHT22;150;52.352;14.058;2023-03-24T11:37:50;17.40;37.10
326;DHT22;150;52.352;14.058;2023-03-24T11:40:21;17.20;38.80
326;DHT22;150;52.352;14.058;2023-03-24T11:42:50;17.20;39.20
326;DHT22;150;52.352;14.058;2023-03-24T11:45:27;17.10;37.90
326;DHT22;150;52.352;14.058;2023-03-24T11:47:57;16.90;37.90
326;DHT22;150;52.352;14.058;2023-03-24T11:50:27;17.00;38.60
326;DHT22;150;52.352;14.058;2023-03-24T11:52:59;17.00;38.60
326;DHT22;150;52.352;14.058;2023-03-24T11:55:33;17.10;38.70
326;DHT22;150;52.352;14.058;2023-03-24T11:58:03;17.20;37.50
326;DHT22;150;52.352;14.058;2023-03-24T12:00:39;17.20;37.50
326;DHT22;150;52.352;14.058;2023-03-24T12:03:44;17.30;38.00
326;DHT22;150;52.352;14.058;2023-03-24T12:06:27;17.40;37.30
326;DHT22;150;52.352;14.058;2023-03-24T12:09:07;17.40;36.00
326;DHT22;150;52.352;14.058;2023-03-24T12:11:48;17.30;36.70
326;DHT22;150;52.352;14.058;2023-03-24T12:14:22;17.40;37.70
326;DHT22;150;52.352;14.058;2023-03-24T12:16:59;17.30;37.10
326;DHT22;150;52.352;14.058;2023-03-24T12:22:40;17.20;38.30
326;DHT22;150;52.352;14.058;2023-03-24T12:25:25;17.20;38.80
326;DHT22;150;52.352;14.058;2023-03-24T12:28:03;17.30;38.90
326;DHT22;150;52.352;14.058;2023-03-24T12:30:40;17.30;38.90
326;DHT22;150;52.352;14.058;2023-03-24T12:33:24;17.30;39.00
326;DHT22;150;52.352;14.058;2023-03-24T12:36:12;17.40;38.30
326;DHT22;150;52.352;14.058;2023-03-24T12:38:52;17.50;37.10
326;DHT22;150;52.352;14.058;2023-03-24T12:41:30;17.60;35.90
326;DHT22;150;52.352;14.058;2023-03-24T12:44:21;17.70;32.50
326;DHT22;150;52.352;14.058;2023-03-24T12:46:56;17.70;31.40
326;DHT22;150;52.352;14.058;2023-03-24T12:49:38;17.70;30.30
326;DHT22;150;52.352;14.058;2023-03-24T12:52:22;17.70;30.00
326;DHT22;150;52.352;14.058;2023-03-24T12:54:53;17.70;29.50
326;DHT22;150;52.352;14.058;2023-03-24T12:57:31;17.40;29.10
326;DHT22;150;52.352;14.058;2023-03-24T13:00:00;17.40;29.60
326;DHT22;150;52.352;14.058;2023-03-24T13:02:33;17.40;28.70
326;DHT22;150;52.352;14.058;2023-03-24T13:05:06;17.30;28.50
326;DHT22;150;52.352;14.058;2023-03-24T13:07:41;17.20;28.40
326;DHT22;150;52.352;14.058;2023-03-24T13:10:14;17.40;29.00
326;DHT22;150;52.352;14.058;2023-03-24T13:12:46;17.50;28.60
326;DHT22;150;52.352;14.058;2023-03-24T13:15:18;17.60;27.90
326;DHT22;150;52.352;14.058;2023-03-24T13:17:49;17.70;27.70
326;DHT22;150;52.352;14.058;2023-03-24T13:20:24;17.80;27.90
326;DHT22;150;52.352;14.058;2023-03-24T13:22:52;18.00;27.90
326;DHT22;150;52.352;14.058;2023-03-24T13:25:28;18.10;27.80
326;DHT22;150;52.352;14.058;2023-03-24T13:27:59;18.20;27.10
326;DHT22;150;52.352;14.058;2023-03-24T13:30:34;18.30;27.00
326;DHT22;150;52.352;14.058;2023-03-24T13:33:04;18.40;26.00
326;DHT22;150;52.352;14.058;2023-03-24T13:35:47;18.40;25.80
326;DHT22;150;52.352;14.058;2023-03-24T13:38:21;18.50;25.60
326;DHT22;150;52.352;14.058;2023-03-24T13:40:52;18.50;25.50
326;DHT22;150;52.352;14.058;2023-03-24T13:43:22;18.50;26.10
326;DHT22;150;52.352;14.058;2023-03-24T13:45:51;18.40;25.60
326;DHT22;150;52.352;14.058;2023-03-24T13:48:31;18.40;26.00
326;DHT22;150;52.352;14.058;2023-03-24T13:51:04;18.30;26.00
326;DHT22;150;52.352;14.058;2023-03-24T13:53:37;18.30;26.50
326;DHT22;150;52.352;14.058;2023-03-24T13:56:06;18.30;26.80
326;DHT22;150;52.352;14.058;2023-03-24T13:58:49;18.20;26.50
326;DHT22;150;52.352;14.058;2023-03-24T14:01:32;18.10;26.80
326;DHT22;150;52.352;14.058;2023-03-24T14:04:24;18.00;27.20
326;DHT22;150;52.352;14.058;2023-03-24T14:06:54;18.00;26.60
326;DHT22;150;52.352;14.058;2023-03-24T14:09:22;17.60;23.20
326;DHT22;150;52.352;14.058;2023-03-24T14:12:22;17.70;27.40
326;DHT22;150;52.352;14.058;2023-03-24T14:15:16;17.40;27.60
326;DHT22;150;52.352;14.058;2023-03-24T14:17:45;17.20;26.10
326;DHT22;150;52.352;14.058;2023-03-24T14:20:25;16.80;25.80
326;DHT22;150;52.352;14.058;2023-03-24T14:22:54;16.80;26.00
326;DHT22;150;52.352;14.058;2023-03-24T14:25:24;16.70;25.50
326;DHT22;150;52.352;14.058;2023-03-24T14:27:52;16.60;23.60
326;DHT22;150;52.352;14.058;2023-03-24T14:30:20;16.80;22.30
326;DHT22;150;52.352;14.058;2023-03-24T14:32:50;16.90;21.90
326;DHT22;150;52.352;14.058;2023-03-24T14:35:29;16.80;20.80
326;DHT22;150;52.352;14.058;2023-03-24T14:37:59;16.80;20.30
326;DHT22;150;52.352;14.058;2023-03-24T14:40:32;16.90;20.30
326;DHT22;150;52.352;14.058;2023-03-24T14:43:16;16.90;20.30
326;DHT22;150;52.352;14.058;2023-03-24T14:46:00;17.00;20.70
326;DHT22;150;52.352;14.058;2023-03-24T14:48:37;16.90;20.60
326;DHT22;150;52.352;14.058;2023-03-24T14:53:55;16.70;20.70
326;DHT22;150;52.352;14.058;2023-03-24T14:56:32;16.60;21.10
326;DHT22;150;52.352;14.058;2023-03-24T14:59:02;16.60;22.00
326;DHT22;150;52.352;14.058;2023-03-24T15:01:32;16.60;22.00
326;DHT22;150;52.352;14.058;2023-03-24T15:04:00;16.70;22.50
326;DHT22;150;52.352;14.058;2023-03-24T15:06:29;16.60;22.00
326;DHT22;150;52.352;14.058;2023-03-24T15:08:58;16.50;22.20
326;DHT22;150;52.352;14.058;2023-03-24T15:11:27;16.30;22.30
326;DHT22;150;52.352;14.058;2023-03-24T15:13:55;16.20;23.80
326;DHT22;150;52.352;14.058;2023-03-24T15:16:25;16.10;24.20
326;DHT22;150;52.352;14.058;2023-03-24T15:18:54;16.10;25.10
326;DHT22;150;52.352;14.058;2023-03-24T15:21:25;16.00;24.50
326;DHT22;150;52.352;14.058;2023-03-24T15:23:53;16.10;24.50
326;DHT22;150;52.352;14.058;2023-03-24T15:26:22;16.10;24.60
326;DHT22;150;52.352;14.058;2023-03-24T15:28:54;16.10;24.50
326;DHT22;150;52.352;14.058;2023-03-24T15:31:21;16.00;25.40
326;DHT22;150;52.352;14.058;2023-03-24T15:33:50;16.00;25.40
326;DHT22;150;52.352;14.058;2023-03-24T15:36:21;15.90;25.80
326;DHT22;150;52.352;14.058;2023-03-24T15:38:49;16.00;26.10
326;DHT22;150;52.352;14.058;2023-03-24T15:41:18;16.00;26.30
326;DHT22;150;52.352;14.058;2023-03-24T15:43:50;15.90;26.70
326;DHT22;150;52.352;14.058;2023-03-24T15:46:27;16.00;26.50
326;DHT22;150;52.352;14.058;2023-03-24T15:48:55;16.00;26.20
326;DHT22;150;52.352;14.058;2023-03-24T15:51:47;16.00;26.20
326;DHT22;150;52.352;14.058;2023-03-24T15:54:20;15.90;26.10
326;DHT22;150;52.352;14.058;2023-03-24T15:57:08;15.90;26.90
326;DHT22;150;52.352;14.058;2023-03-24T15:59:43;15.90;26.70
326;DHT22;150;52.352;14.058;2023-03-24T16:02:16;15.90;26.60
326;DHT22;150;52.352;14.058;2023-03-24T16:04:46;15.80;26.90
326;DHT22;150;52.352;14.058;2023-03-24T16:07:21;15.80;27.50
326;DHT22;150;52.352;14.058;2023-03-24T16:09:54;15.80;27.50
326;DHT22;150;52.352;14.058;2023-03-24T16:12:23;15.80;27.50
326;DHT22;150;52.352;14.058;2023-03-24T16:14:52;15.80;27.50
326;DHT22;150;52.352;14.058;2023-03-24T16:17:18;15.80;27.50
326;DHT22;150;52.352;14.058;2023-03-24T16:19:45;15.90;27.50
326;DHT22;150;52.352;14.058;2023-03-24T16:22:12;15.90;27.50
326;DHT22;150;52.352;14.058;2023-03-24T16:24:38;15.80;27.50
326;DHT22;150;52.352;14.058;2023-03-24T16:27:05;15.80;27.50
326;DHT22;150;52.352;14.058;2023-03-24T16:29:31;15.70;27.80
326;DHT22;150;52.352;14.058;2023-03-24T16:31:59;15.60;28.10
326;DHT22;150;52.352;14.058;2023-03-24T16:34:26;15.60;28.40
326;DHT22;150;52.352;14.058;2023-03-24T16:36:53;15.40;28.70
326;DHT22;150;52.352;14.058;2023-03-24T16:39:22;15.40;29.10
326;DHT22;150;52.352;14.058;2023-03-24T16:41:49;15.40;29.20
326;DHT22;150;52.352;14.058;2023-03-24T16:44:16;15.40;29.30
326;DHT22;150;52.352;14.058;2023-03-24T16:46:43;15.20;29.50
326;DHT22;150;52.352;14.058;2023-03-24T16:49:13;15.30;29.80
326;DHT22;150;52.352;14.058;2023-03-24T16:51:40;15.20;29.80
326;DHT22;150;52.352;14.058;2023-03-24T16:54:07;15.20;30.30
326;DHT22;150;52.352;14.058;2023-03-24T16:56:34;15.10;30.40
326;DHT22;150;52.352;14.058;2023-03-24T16:59:01;15.10;30.50
326;DHT22;150;52.352;14.058;2023-03-24T17:01:29;15.00;30.70
326;DHT22;150;52.352;14.058;2023-03-24T17:03:59;14.90;31.20
326;DHT22;150;52.352;14.058;2023-03-24T17:06:29;14.90;31.30
326;DHT22;150;52.352;14.058;2023-03-24T17:08:57;14.80;31.40
326;DHT22;150;52.352;14.058;2023-03-24T17:11:26;14.70;31.80
326;DHT22;150;52.352;14.058;2023-03-24T17:13:53;14.70;32.30
326;DHT22;150;52.352;14.058;2023-03-24T17:16:21;14.60;32.50
326;DHT22;150;52.352;14.058;2023-03-24T17:18:50;14.50;32.60
326;DHT22;150;52.352;14.058;2023-03-24T17:21:17;14.60;33.00
326;DHT22;150;52.352;14.058;2023-03-24T17:23:46;14.50;33.10
326;DHT22;150;52.352;14.058;2023-03-24T17:26:13;14.50;33.20
326;DHT22;150;52.352;14.058;2023-03-24T17:28:40;14.40;33.30
326;DHT22;150;52.352;14.058;2023-03-24T17:31:07;14.40;33.60
326;DHT22;150;52.352;14.058;2023-03-24T17:33:34;14.40;33.70
326;DHT22;150;52.352;14.058;2023-03-24T17:36:01;14.30;34.00
326;DHT22;150;52.352;14.058;2023-03-24T17:38:27;14.20;34.20
326;DHT22;150;52.352;14.058;2023-03-24T17:40:59;14.20;34.60
326;DHT22;150;52.352;14.058;2023-03-24T17:43:26;14.10;34.90
326;DHT22;150;52.352;14.058;2023-03-24T17:45:55;14.00;35.00
326;DHT22;150;52.352;14.058;2023-03-24T17:48:23;13.90;35.90
326;DHT22;150;52.352;14.058;2023-03-24T17:50:50;13.80;35.80
326;DHT22;150;52.352;14.058;2023-03-24T17:53:17;13.70;35.80
326;DHT22;150;52.352;14.058;2023-03-24T17:55:50;13.70;36.40
326;DHT22;150;52.352;14.058;2023-03-24T17:58:18;13.70;36.80
326;DHT22;150;52.352;14.058;2023-03-24T18:00:46;13.60;37.00
326;DHT22;150;52.352;14.058;2023-03-24T18:03:12;13.50;37.20
326;DHT22;150;52.352;14.058;2023-03-24T18:05:39;13.40;37.60
326;DHT22;150;52.352;14.058;2023-03-24T18:08:06;13.40;37.90
326;DHT22;150;52.352;14.058;2023-03-24T18:10:33;13.40;38.20
326;DHT22;150;52.352;14.058;2023-03-24T18:13:00;13.30;38.20
326;DHT22;150;52.352;14.058;2023-03-24T18:15:29;13.30;38.60
326;DHT22;150;52.352;14.058;2023-03-24T18:17:55;13.20;38.80
326;DHT22;150;52.352;14.058;2023-03-24T18:20:22;13.20;38.90
326;DHT22;150;52.352;14.058;2023-03-24T18:22:48;13.10;39.40
326;DHT22;150;52.352;14.058;2023-03-24T18:25:16;13.20;39.70
326;DHT22;150;52.352;14.058;2023-03-24T18:27:42;13.20;39.10
326;DHT22;150;52.352;14.058;2023-03-24T18:30:10;13.10;39.10
326;DHT22;150;52.352;14.058;2023-03-24T18:32:39;13.20;39.50
326;DHT22;150;52.352;14.058;2023-03-24T18:35:08;13.10;39.10
326;DHT22;150;52.352;14.058;2023-03-24T18:37:36;13.10;39.10
326;DHT22;150;52.352;14.058;2023-03-24T18:40:04;13.10;38.90
326;DHT22;150;52.352;14.058;2023-03-24T18:42:33;13.00;39.20
326;DHT22;150;52.352;14.058;2023-03-24T18:44:59;13.00;39.50
326;DHT22;150;52.352;14.058;2023-03-24T18:47:26;13.00;39.20
326;DHT22;150;52.352;14.058;2023-03-24T18:49:54;13.00;39.30
326;DHT22;150;52.352;14.058;2023-03-24T18:52:21;13.00;39.40
326;DHT22;150;52.352;14.058;2023-03-24T18:54:47;13.00;39.00
326;DHT22;150;52.352;14.058;2023-03-24T18:57:14;13.00;39.30
326;DHT22;150;52.352;14.058;2023-03-24T18:59:41;13.00;39.40
326;DHT22;150;52.352;14.058;2023-03-24T19:02:09;12.90;39.50
326;DHT22;150;52.352;14.058;2023-03-24T19:04:36;12.90;39.40
326;DHT22;150;52.352;14.058;2023-03-24T19:07:04;12.90;39.40
326;DHT22;150;52.352;14.058;2023-03-24T19:09:32;12.80;39.90
326;DHT22;150;52.352;14.058;2023-03-24T19:11:59;12.70;40.00
326;DHT22;150;52.352;14.058;2023-03-24T19:14:25;12.70;40.20
326;DHT22;150;52.352;14.058;2023-03-24T19:16:53;12.70;40.20
326;DHT22;150;52.352;14.058;2023-03-24T19:19:20;12.70;40.20
326;DHT22;150;52.352;14.058;2023-03-24T19:21:47;12.60;40.40
326;DHT22;150;52.352;14.058;2023-03-24T19:24:15;12.60;40.70
326;DHT22;150;52.352;14.058;2023-03-24T19:26:42;12.60;41.00
326;DHT22;150;52.352;14.058;2023-03-24T19:29:09;12.50;41.20
326;DHT22;150;52.352;14.058;2023-03-24T19:31:35;12.40;41.10
326;DHT22;150;52.352;14.058;2023-03-24T19:34:02;12.50;41.10
326;DHT22;150;52.352;14.058;2023-03-24T19:36:29;12.50;41.00
326;DHT22;150;52.352;14.058;2023-03-24T19:38:55;12.40;41.80
326;DHT22;150;52.352;14.058;2023-03-24T19:41:23;12.50;41.10
326;DHT22;150;52.352;14.058;2023-03-24T19:43:50;12.40;41.00